KPZQ METAR Reports


Rogers City, Presque Isle County Airport, MI, United States (KPZQ) 45-24-25N 083-48-46W
Aug 15, 2018 - 09:56 PM EDT / 2018.08.16 0156 UTC
Wind: Calm:0
Visibility: 10 mile(s):0
Sky conditions: clear
Temperature: 65.5 F (18.6 C)
Dew Point: 59.2 F (15.1 C)
Relative Humidity: 80%
Pressure (altimeter): 30 in. Hg (1015 hPa)
ob: KPZQ 160156Z AUTO 00000KT 10SM CLR 19/15 A3000 RMK AO2 T01860151
cycle: 2

 

Rogers City METAR Meteogram

Weather Chart

Nearby METAR Reports

KPZQ - Rogers City, Michigan, USA
Distance from station: SSW 1mi, 2km
Updated: Wed, 15-Aug-2018 9:56pm EDT
Clear
Clear
 Wind from calm
Wind: Calm
Temperature: 66°F , 19°C
Dew Point: 59°F , 15°C
Humidity: 78%
Barometer: 30.00 inHg , 1015.9 hPa
Clouds: Clear
Visibility: 10 miles , 16 km
2018/08/16 01:56 KPZQ 160156Z AUTO 00000KT 10SM CLR 19/15 A3000 RMK AO2 T01860151
KAPN - Alpena, Michigan, USA
Distance from station: SSE 27mi, 43km
Updated: Wed, 15-Aug-2018 9:54pm EDT
Overcast
Overcast
 Wind from S
Wind: S 3 mph , 6 km/h
Temperature: 73°F , 23°C
Dew Point: 66°F , 19°C
Humidity: 78%
Barometer: 29.99 inHg , 1015.6 hPa
Clouds: Overcast
Visibility: 10 miles , 16 km
Cloud details: Partly cloudy 6500 ft
Overcast 9000 ft
2018/08/16 01:54 KAPN 160154Z AUTO 17003KT 10SM SCT065 OVC090 23/19 A2999 RMK AO2 SLP152 T02280189
 
KSLH - Cheboygan, Michigan, USA
Distance from station: WNW 38mi, 61km
Updated: Wed, 15-Aug-2018 10:15pm EDT
Clear
Clear
 Wind from calm
Wind: Calm
Temperature: 64°F , 18°C
Dew Point: 55°F , 13°C
Humidity: 73%
Barometer: 29.98 inHg , 1015.2 hPa
Clouds: Clear
Visibility: 10 miles , 16 km
2018/08/16 02:15 KSLH 160215Z AUTO 00000KT 10SM CLR 18/13 A2998 RMK AO2 T01830140
KDRM - Drummond Is, Michigan, USA
Distance from station: N 40mi, 65km
Updated: Wed, 15-Aug-2018 10:15pm EDT
Clear
Clear
 Wind from calm
Wind: Calm
Temperature: 68°F , 20°C
Dew Point: 55°F , 13°C
Humidity: 64%
Barometer: 29.98 inHg , 1015.2 hPa
Clouds: Clear
Visibility: 10 miles , 16 km
2018/08/16 02:15 KDRM 160215Z AUTO 00000KT 10SM CLR 20/13 A2998 RMK AO2 T01980129
 
KPLN - Pellston, Michigan, USA
Distance from station: WNW 49mi, 79km
Updated: Wed, 15-Aug-2018 9:54pm EDT
Clear
Clear
 Wind from ENE
Wind: ENE 3 mph , 6 km/h
Temperature: 72°F , 22°C
Dew Point: 57°F , 14°C
Humidity: 61%
Barometer: 29.99 inHg , 1015.6 hPa
Clouds: Clear
Visibility: 10 miles , 16 km
2018/08/16 01:54 KPLN 160154Z AUTO 06003KT 10SM CLR 22/14 A2999 RMK AO2 SLP152 T02170139
KMCD - Mackinac Island, Michigan, USA
Distance from station: NW 50mi, 80km
Updated: Wed, 15-Aug-2018 9:55pm EDT
Overcast
Overcast
 Wind from NNE
Wind: NNE 8 mph , 13 km/h
Temperature: 68°F , 20°C
Dew Point: 48°F , 9°C
Humidity: 49%
Barometer: 29.99 inHg , 1015.6 hPa
Clouds: Overcast
Visibility: 10 miles , 16 km
Cloud details: Overcast 8000 ft
2018/08/16 01:55 KMCD 160155Z AUTO 02007KT 10SM OVC080 20/09 A2999 RMK AO2 T01980093